createdAt,value
2023-02-11T00:01:30.763Z,28.40
2023-02-11T00:04:07.201Z,25.90
2023-02-11T00:06:36.552Z,37.60
2023-02-11T00:09:06.325Z,34.90
2023-02-11T00:11:35.044Z,32.20
2023-02-11T00:14:10.402Z,31.10
2023-02-11T00:16:39.243Z,29.30
2023-02-11T00:19:18.086Z,22.90
2023-02-11T00:21:46.614Z,22.30
2023-02-11T00:24:15.060Z,27.40
2023-02-11T00:26:45.239Z,22.30
2023-02-11T00:29:13.838Z,17.50
2023-02-11T00:31:42.325Z,16.70
2023-02-11T00:34:11.520Z,21.40
2023-02-11T00:36:40.296Z,16.30
2023-02-11T00:39:09.612Z,23.40
2023-02-11T00:41:38.306Z,29.80
2023-02-11T00:44:06.844Z,21.00
2023-02-11T00:46:35.490Z,8.70
2023-02-11T00:49:12.223Z,13.30
2023-02-11T00:51:41.652Z,8.40
2023-02-11T00:54:10.118Z,27.50
2023-02-11T00:56:40.941Z,29.20
2023-02-11T00:59:09.546Z,30.30
2023-02-11T01:01:38.330Z,27.60
2023-02-11T01:04:06.914Z,25.90
2023-02-11T01:06:36.704Z,24.40
2023-02-11T01:11:54.456Z,24.40
2023-02-11T01:14:22.788Z,26.00
2023-02-11T01:16:52.220Z,28.90
2023-02-11T01:19:21.998Z,14.40
2023-02-11T01:21:50.667Z,19.80
2023-02-11T01:24:23.869Z,23.40
2023-02-11T01:26:52.609Z,22.50
2023-02-11T01:29:21.188Z,23.80
2023-02-11T01:31:49.802Z,10.90
2023-02-11T01:34:27.519Z,6.90
2023-02-11T01:37:00.362Z,12.00
2023-02-11T01:39:34.566Z,25.20
2023-02-11T01:42:18.096Z,23.90
2023-02-11T01:44:49.645Z,22.00
2023-02-11T01:47:19.463Z,23.10
2023-02-11T01:50:00.470Z,22.70
2023-02-11T01:52:35.741Z,23.70
2023-02-11T01:55:35.786Z,27.20
2023-02-11T01:58:06.459Z,24.10
2023-02-11T02:00:38.796Z,25.50
2023-02-11T02:03:31.378Z,25.80
2023-02-11T02:06:16.331Z,22.50
2023-02-11T02:09:09.405Z,14.60
2023-02-11T02:11:48.113Z,12.10
2023-02-11T02:14:16.827Z,9.10
2023-02-11T02:16:47.309Z,25.70
2023-02-11T02:19:40.586Z,19.80
2023-02-11T02:22:43.483Z,19.30
2023-02-11T02:25:51.110Z,20.50
2023-02-11T02:28:28.969Z,19.70
2023-02-11T02:31:29.088Z,19.90
2023-02-11T02:34:17.383Z,17.00
2023-02-11T02:37:11.007Z,11.10
2023-02-11T02:39:50.533Z,21.20
2023-02-11T02:42:21.599Z,11.80
2023-02-11T02:44:52.372Z,10.90
2023-02-11T02:47:32.111Z,10.30
2023-02-11T02:50:01.158Z,5.90
2023-02-11T02:52:37.103Z,16.10
2023-02-11T02:55:34.765Z,16.40
2023-02-11T02:58:46.766Z,9.60
2023-02-11T03:02:00.629Z,22.70
2023-02-11T03:04:29.058Z,18.80
2023-02-11T03:07:39.555Z,10.20
2023-02-11T03:10:13.670Z,19.90
2023-02-11T03:12:51.723Z,19.00
2023-02-11T03:15:24.849Z,11.50
2023-02-11T03:17:56.747Z,19.90
2023-02-11T03:23:12.979Z,14.50
2023-02-11T03:25:59.979Z,19.00
2023-02-11T03:29:11.062Z,14.30
2023-02-11T03:32:20.136Z,16.10
2023-02-11T03:35:04.419Z,15.60
2023-02-11T03:37:43.570Z,12.70
2023-02-11T03:40:27.115Z,22.60
2023-02-11T03:43:09.422Z,20.90
2023-02-11T03:45:39.845Z,19.70
2023-02-11T03:48:48.234Z,18.20
2023-02-11T03:51:18.527Z,10.30
2023-02-11T03:53:48.600Z,7.90
2023-02-11T03:56:31.626Z,6.40
2023-02-11T03:59:00.627Z,11.30
2023-02-11T04:01:29.141Z,12.90
2023-02-11T04:03:58.078Z,6.30
2023-02-11T04:06:26.765Z,13.90
2023-02-11T04:09:06.530Z,11.30
2023-02-11T04:11:35.219Z,6.70
2023-02-11T04:14:03.994Z,21.40
2023-02-11T04:16:33.440Z,7.90
2023-02-11T04:19:02.122Z,7.10
2023-02-11T04:21:41.127Z,22.00
2023-02-11T04:24:09.689Z,19.50
2023-02-11T04:26:38.206Z,20.10
2023-02-11T04:29:06.967Z,20.20
2023-02-11T04:31:35.254Z,19.60
2023-02-11T04:34:03.743Z,11.20
2023-02-11T04:36:32.199Z,19.10
2023-02-11T04:39:01.897Z,14.70
2023-02-11T04:41:30.419Z,10.60
2023-02-11T04:43:59.508Z,4.90
2023-02-11T04:46:28.857Z,18.00
2023-02-11T04:48:58.466Z,14.90
2023-02-11T04:51:27.012Z,5.30
2023-02-11T04:53:55.913Z,5.60
2023-02-11T04:56:32.432Z,17.40
2023-02-11T04:59:01.623Z,18.20
2023-02-11T05:01:30.434Z,21.10
2023-02-11T05:04:00.055Z,19.80
2023-02-11T05:06:28.750Z,19.60
2023-02-11T05:08:57.483Z,19.90
2023-02-11T05:11:26.536Z,18.80
2023-02-11T05:13:55.020Z,14.70
2023-02-11T05:16:24.147Z,6.30
2023-02-11T05:19:17.755Z,7.40
2023-02-11T05:22:02.587Z,18.60
2023-02-11T05:24:32.423Z,18.10
2023-02-11T05:27:02.137Z,19.30
2023-02-11T05:29:40.707Z,18.10
2023-02-11T05:32:09.299Z,20.50
2023-02-11T05:34:37.869Z,23.20
2023-02-11T05:37:06.605Z,9.60
2023-02-11T05:39:35.189Z,18.70
2023-02-11T05:42:05.172Z,20.60
2023-02-11T05:44:33.908Z,18.20
2023-02-11T05:47:02.380Z,20.60
2023-02-11T05:49:31.816Z,22.70
2023-02-11T05:52:00.392Z,22.80
2023-02-11T05:54:29.066Z,15.10
2023-02-11T05:56:58.777Z,23.90
2023-02-11T05:59:27.364Z,11.60
2023-02-11T06:01:55.914Z,17.40
2023-02-11T06:04:24.833Z,14.00
2023-02-11T06:06:53.282Z,27.60
2023-02-11T06:09:21.719Z,26.50
2023-02-11T06:11:50.729Z,17.70
2023-02-11T06:14:19.818Z,25.10
2023-02-11T06:16:48.340Z,28.40
2023-02-11T06:19:16.825Z,14.20
2023-02-11T06:21:45.427Z,20.30
2023-02-11T06:24:13.992Z,11.70
2023-02-11T06:26:42.464Z,10.60
2023-02-11T06:29:11.008Z,25.40
2023-02-11T06:31:40.462Z,24.60
2023-02-11T06:34:09.890Z,23.60
2023-02-11T06:36:44.112Z,14.90
2023-02-11T06:39:14.998Z,9.40
2023-02-11T06:41:52.912Z,7.90
2023-02-11T06:44:22.214Z,21.60
2023-02-11T06:46:50.786Z,19.40
2023-02-11T06:49:20.089Z,19.60
2023-02-11T06:51:48.646Z,22.50
2023-02-11T06:54:17.479Z,23.00
2023-02-11T06:56:46.179Z,22.30
2023-02-11T06:59:34.512Z,16.20
2023-02-11T07:02:05.265Z,22.60
2023-02-11T07:04:33.927Z,18.60
2023-02-11T07:07:02.358Z,16.10
2023-02-11T07:09:30.942Z,7.90
2023-02-11T07:12:12.373Z,12.30
2023-02-11T07:14:48.040Z,14.20
2023-02-11T07:17:27.763Z,14.00
2023-02-11T07:19:57.281Z,19.00
2023-02-11T07:22:28.367Z,19.50
2023-02-11T07:24:56.932Z,14.10
2023-02-11T07:27:25.610Z,18.80
2023-02-11T07:29:55.194Z,15.10
2023-02-11T07:32:23.888Z,22.40
2023-02-11T07:34:52.618Z,17.30
2023-02-11T07:37:21.147Z,12.40
2023-02-11T07:40:00.161Z,13.70
2023-02-11T07:42:29.526Z,11.10
2023-02-11T07:44:57.945Z,14.00
2023-02-11T07:47:26.517Z,22.80
2023-02-11T07:49:56.776Z,23.70
2023-02-11T07:52:25.377Z,22.10
2023-02-11T07:54:53.928Z,21.50
2023-02-11T07:57:22.564Z,25.00
2023-02-11T07:59:51.302Z,22.90
2023-02-11T08:02:20.743Z,15.80
2023-02-11T08:04:49.368Z,17.10
2023-02-11T08:07:18.895Z,14.50
2023-02-11T08:09:47.619Z,12.50
2023-02-11T08:12:15.968Z,22.70
2023-02-11T08:14:45.164Z,23.80
2023-02-11T08:17:13.586Z,32.50
2023-02-11T08:19:42.224Z,38.40
2023-02-11T08:22:10.616Z,41.00
2023-02-11T08:24:39.016Z,39.00
2023-02-11T08:27:07.415Z,24.70
2023-02-11T08:29:36.270Z,38.80
2023-02-11T08:32:05.478Z,41.70
2023-02-11T08:34:42.825Z,34.20
2023-02-11T08:37:11.315Z,16.50
2023-02-11T08:39:39.677Z,42.80
2023-02-11T08:42:08.172Z,38.00
2023-02-11T08:44:36.553Z,37.80
2023-02-11T08:47:05.329Z,27.80
2023-02-11T08:49:34.232Z,17.00
2023-02-11T08:52:04.356Z,22.10
2023-02-11T08:54:32.835Z,33.80
2023-02-11T08:57:02.112Z,31.80
2023-02-11T08:59:30.871Z,29.90
2023-02-11T09:01:59.269Z,63.10
2023-02-11T09:04:27.791Z,29.60
2023-02-11T09:06:56.162Z,29.90
2023-02-11T09:09:24.538Z,26.30
2023-02-11T09:12:01.583Z,24.50
2023-02-11T09:14:30.037Z,24.10
2023-02-11T09:16:58.343Z,24.30
2023-02-11T09:19:26.962Z,27.10
2023-02-11T09:21:55.447Z,16.70
2023-02-11T09:24:24.639Z,43.60
2023-02-11T09:26:53.049Z,17.40
2023-02-11T09:29:21.437Z,33.50
2023-02-11T09:31:50.541Z,33.00
2023-02-11T09:34:19.212Z,25.50
2023-02-11T09:36:48.068Z,30.20
2023-02-11T09:39:19.840Z,25.80
2023-02-11T09:41:54.473Z,26.30
2023-02-11T09:44:29.662Z,31.50
2023-02-11T09:47:21.338Z,24.90
2023-02-11T09:49:55.155Z,20.10
2023-02-11T09:52:41.945Z,26.80
2023-02-11T09:55:40.136Z,26.10
2023-02-11T09:58:12.874Z,26.40
2023-02-11T10:03:32.082Z,21.50
2023-02-11T10:06:43.727Z,10.60
2023-02-11T10:10:13.653Z,8.80
2023-02-11T10:13:20.200Z,10.30
2023-02-11T10:16:00.574Z,24.20
2023-02-11T10:18:55.093Z,27.50
2023-02-11T10:21:45.116Z,23.10
2023-02-11T10:24:41.398Z,25.00
2023-02-11T10:29:25.017Z,29.90
2023-02-11T10:41:29.267Z,24.20
2023-02-11T10:45:04.144Z,22.40
2023-02-11T10:47:53.002Z,27.10
2023-02-11T10:50:41.275Z,23.50
2023-02-11T10:53:21.613Z,23.40
2023-02-11T10:55:59.918Z,17.00
2023-02-11T10:58:59.212Z,35.50
2023-02-11T11:01:47.728Z,18.00
2023-02-11T11:04:37.491Z,29.30
2023-02-11T11:07:24.460Z,25.50
2023-02-11T11:11:37.455Z,30.80
2023-02-11T11:14:49.399Z,26.00
2023-02-11T11:28:34.828Z,13.40
2023-02-11T11:50:18.511Z,10.30
2023-02-11T11:57:54.534Z,22.80
2023-02-11T12:01:49.429Z,25.50
2023-02-11T12:04:45.995Z,18.90
2023-02-11T12:07:35.492Z,24.20
2023-02-11T12:10:48.983Z,23.90
2023-02-11T12:14:24.578Z,15.60
2023-02-11T12:17:22.993Z,13.20
2023-02-11T12:20:37.520Z,27.60
2023-02-11T12:24:31.639Z,23.00
2023-02-11T12:27:43.112Z,21.00
2023-02-11T12:32:29.434Z,22.70
2023-02-11T12:36:22.919Z,18.60
2023-02-11T12:43:44.759Z,17.50
2023-02-11T12:47:48.725Z,19.00
2023-02-11T12:51:47.710Z,21.60
2023-02-11T13:41:58.321Z,10.40
2023-02-11T13:59:50.638Z,13.60
2023-02-11T14:02:56.205Z,29.50
2023-02-11T14:06:59.801Z,31.50
2023-02-11T14:11:16.172Z,29.80
2023-02-11T14:29:46.659Z,28.80
2023-02-11T14:33:35.067Z,24.00
2023-02-11T14:37:32.986Z,23.60
2023-02-11T14:40:35.936Z,24.00
2023-02-11T14:43:59.931Z,18.40
2023-02-11T14:52:00.589Z,27.50
2023-02-11T14:58:37.897Z,23.10
2023-02-11T15:01:32.623Z,29.80
2023-02-11T15:05:30.379Z,26.40
2023-02-11T15:09:12.201Z,22.30
2023-02-11T15:15:41.535Z,23.50
2023-02-11T15:18:45.427Z,25.70
2023-02-11T15:21:50.654Z,25.00
2023-02-11T15:25:08.952Z,17.70
2023-02-11T15:32:11.915Z,23.20
2023-02-11T15:35:03.622Z,26.80
2023-02-11T15:37:45.079Z,29.00
2023-02-11T15:41:01.535Z,28.00
2023-02-11T15:44:42.608Z,25.90
2023-02-11T15:51:05.726Z,30.20
2023-02-11T15:54:56.724Z,16.00
2023-02-11T15:57:27.604Z,13.20
2023-02-11T16:03:44.347Z,43.70
2023-02-11T16:07:17.187Z,25.70
2023-02-11T16:11:10.640Z,10.40
2023-02-11T16:16:51.754Z,9.10
2023-02-11T16:19:35.299Z,29.10
2023-02-11T16:22:43.896Z,30.40
2023-02-11T16:25:59.732Z,34.20
2023-02-11T16:32:22.823Z,13.60
2023-02-11T16:38:33.903Z,9.80
2023-02-11T16:41:23.732Z,11.80
2023-02-11T16:43:57.017Z,20.50
2023-02-11T16:46:45.868Z,14.70
2023-02-11T16:49:50.035Z,27.10
2023-02-11T16:53:01.260Z,46.20
2023-02-11T16:55:39.798Z,45.20
2023-02-11T16:58:08.689Z,36.20
2023-02-11T17:00:37.647Z,32.10
2023-02-11T17:03:27.457Z,29.70
2023-02-11T17:05:57.428Z,27.10
2023-02-11T17:08:25.817Z,27.70
2023-02-11T17:10:54.490Z,11.70
2023-02-11T17:13:23.000Z,14.60
2023-02-11T17:15:51.882Z,10.40
2023-02-11T17:18:20.418Z,34.50
2023-02-11T17:20:50.865Z,31.40
2023-02-11T17:23:19.612Z,38.50
2023-02-11T17:25:55.430Z,37.20
2023-02-11T17:28:24.690Z,33.00
2023-02-11T17:30:53.105Z,37.10
2023-02-11T17:33:22.140Z,22.10
2023-02-11T17:35:50.903Z,20.80
2023-02-11T17:38:19.678Z,27.40
2023-02-11T17:40:58.052Z,34.10
2023-02-11T17:43:26.866Z,45.70
2023-02-11T17:45:55.295Z,44.50
2023-02-11T17:52:34.580Z,23.40
2023-02-11T17:55:11.814Z,30.70
2023-02-11T17:57:42.219Z,26.20
2023-02-11T18:00:12.241Z,44.30
2023-02-11T18:02:43.484Z,27.70
2023-02-11T18:05:15.362Z,24.00
2023-02-11T18:07:52.436Z,42.90
2023-02-11T18:10:53.860Z,29.60
2023-02-11T18:13:38.659Z,36.90
2023-02-11T18:16:19.385Z,36.40
2023-02-11T18:18:51.081Z,35.70
2023-02-11T18:22:00.556Z,39.80
2023-02-11T18:25:40.956Z,32.90
2023-02-11T18:31:35.713Z,33.00
2023-02-11T18:34:18.290Z,35.30
2023-02-11T18:36:48.667Z,30.70
2023-02-11T18:39:19.661Z,12.50
2023-02-11T18:41:48.598Z,14.90
2023-02-11T18:44:34.533Z,36.30
2023-02-11T18:47:24.069Z,35.50
2023-02-11T18:50:05.951Z,36.30
2023-02-11T18:53:07.946Z,36.10
2023-02-11T18:55:56.844Z,60.10
2023-02-11T19:03:17.955Z,85.60
2023-02-11T19:09:29.032Z,45.70
2023-02-11T19:11:59.205Z,37.60
2023-02-11T19:14:36.113Z,34.70
2023-02-11T19:17:14.662Z,26.50
2023-02-11T19:19:51.992Z,22.80
2023-02-11T19:22:42.063Z,12.80
2023-02-11T19:25:12.364Z,23.10
2023-02-11T19:27:46.559Z,17.00
2023-02-11T19:36:38.614Z,34.20
2023-02-11T22:02:41.325Z,32.40
2023-02-11T22:05:12.844Z,47.80
2023-02-11T22:07:45.064Z,33.10
2023-02-11T22:10:14.435Z,26.80
2023-02-11T22:12:51.738Z,40.40
2023-02-11T22:15:21.667Z,45.80
2023-02-11T22:18:10.578Z,31.40
2023-02-11T22:20:43.841Z,21.30
2023-02-11T22:23:13.850Z,46.90
2023-02-11T22:25:42.414Z,48.50
2023-02-11T22:28:12.008Z,45.70
2023-02-11T22:30:41.370Z,46.40
2023-02-11T22:33:17.986Z,28.70
2023-02-11T22:35:46.598Z,23.60
2023-02-11T22:38:15.187Z,15.50
2023-02-11T22:40:45.999Z,28.90
2023-02-11T22:43:15.168Z,21.80
2023-02-11T22:45:45.148Z,35.80
2023-02-11T22:48:15.168Z,32.40
2023-02-11T22:50:43.651Z,37.90
2023-02-11T22:53:15.430Z,20.90
2023-02-11T22:55:44.500Z,46.40
2023-02-11T22:58:14.899Z,31.60
2023-02-11T23:00:44.184Z,27.10
2023-02-11T23:03:13.015Z,47.80
2023-02-11T23:05:51.620Z,33.00
2023-02-11T23:08:31.048Z,36.70
2023-02-11T23:11:14.260Z,20.70
2023-02-11T23:13:45.175Z,21.70
2023-02-11T23:16:26.757Z,33.90
2023-02-11T23:18:55.805Z,44.50
2023-02-11T23:21:27.963Z,42.60
2023-02-11T23:24:07.632Z,36.10
2023-02-11T23:26:40.939Z,39.10
2023-02-11T23:29:11.013Z,30.10
2023-02-11T23:31:44.172Z,28.00
2023-02-11T23:34:25.631Z,32.10
2023-02-11T23:37:15.208Z,23.30
2023-02-11T23:39:45.070Z,14.00
2023-02-11T23:42:15.837Z,19.70
2023-02-11T23:44:45.971Z,18.80
2023-02-11T23:47:14.559Z,31.90
2023-02-11T23:49:52.628Z,17.10
2023-02-11T23:52:25.144Z,20.60
2023-02-11T23:54:56.136Z,32.70
2023-02-11T23:57:25.950Z,33.20
